Airfield :







YOU CAN JOIN US ON...

 
LOGIN :

Register | Disclaimer

   EN    FR    IT 

 









Legend :    VFR   Marginal VFR   IFR   Intensive IFR   Very Intensive IFR
Visi :
Ceiling :
>= 8 km
>= 3000ft
5 to 8 km
1000 to 3000 ft
1500m to 5 km
500 to 1000 ft
800 to 1500m
200 to 500 ft
< 800m
< 200 ft
Symbols :   Thunderstorms  Fog  Heavy snow  Heavy precipitations  Wind > 20 kt






- Airport Elevation : 1005 ft
- IATA code : YAH


CYAH - La Grande-4

CURRENT METAR :
  • 142000Z AUTO 11009G15KT 080V170 9SM CLR 25/07 A3014 RMK SLP216 DENSITY ALT 2000FT

EXPIRED METARs :
  • 141900Z AUTO 12012KT 090V160 9SM CLR 25/07 A3015 RMK SLP219 DENSITY ALT 2100FT
  • 141800Z AUTO 14012G18KT 110V200 9SM CLR 24/07 A3015 RMK SLP220 DENSITY ALT 2000FT

TAF TAF CYAH
Valid from the 14 at 18:00 until the 14 at 21:00 UTC


141738Z 1418/1421 12010KT P6SM SKC RMK FCST BASED ON AUTO OBS. NXT FCST WILL BE ISSUED AT 151045Z
CZUL FIR / North America



MET'MAP, your aeronautical weather chart ! - Copyright ORBIFLY December 2007 - Disclaimer

ORBIFLY MET'MAP TEAM :

Programming & Development : Alexandra Zaïnal
Concept & original design : Baudouin d'Aumeries
Assistance for programming : Marc-Olivier Méhu
Technical & hardware support : Manuel Goepfert

Contact : metmap@orbifly.com




SOURCES & CREDITS :

   NOAA